グアム の空港の天気 - METARとTAF

グアム国際空港 ( PGUM / GUM ) - グアム ハガニア
飛行場実況気象(Metar)
観測時間08/16 16:17 ChST (08/16 06:17 UTC)
風向・風速南 5m/s 瞬間風速9m/s
視程4850m
天気現象弱い雨 もや
少しの雲 雲底高度 610m
全天の4割程度の雲 雲底高度 910m
全天の8割程度の雲 雲底高度 1280m
気温27.8℃
湿度100%
気圧1003hPa
METARPGUM 160617Z 19009G17KT 3SM -RA BR FEW020 SCT030 BKN042 28/28 A2961 RMK AO2 RAB05 P0005 T02780278
過去の天気等 Google飛行場航空写真 Wunderground天気予報

過去48時間のMETAR

飛行場予報(TAF)
発表時間: 8/16 15:25 ChST (8/16 05:25 UTC)
予報対象時間: 16日16時 ChST ~ 17日22時 ChST
風向・風速南 8m/s 瞬間風速 13m/s
視程10km以上
天気現象周辺でしゅう雨
少しの雲 雲底高度 370m
全天の8割程度の雲 雲底高度 760m
全天を覆う雲 雲底高度 2740m
16日16時 ChST ~ 16日19時 ChST に一時的に
視程4830m
天気現象強いしゅう雨
全天の8割程度の雲 雲底高度 370m
全天を覆う雲 雲底高度 760m
16日19時 ChST から
風向・風速南南西 7m/s 瞬間風速 12m/s
視程10km以上
天気現象周辺でしゅう雨
全天の4割程度の雲 雲底高度 460m
全天の8割程度の雲 雲底高度 910m
全天を覆う雲 雲底高度 3350m
17日11時 ChST から
風向・風速南西 8m/s
視程10km以上
天気現象周辺でしゅう雨
全天の4割程度の雲 雲底高度 550m
全天の4割程度の雲 雲底高度 910m
全天の8割程度の雲 雲底高度 3660m
PGUM 160525Z 1606/1712 19015G25KT P6SM VCSH FEW012 BKN025 OVC090
TEMPO 1606/1609 3SM +SHRA BKN012 OVC025
FM160900 20013G23KT P6SM VCSH SCT015 BKN030 OVC110
FM170100 22015KT P6SM VCSH SCT018 SCT030 BKN120